createdAt,value
2018-12-05T00:01:48.249Z,14.30
2018-12-05T00:04:16.580Z,13.53
2018-12-05T00:06:45.111Z,13.40
2018-12-05T00:09:13.451Z,13.93
2018-12-05T00:11:41.965Z,14.33
2018-12-05T00:14:10.348Z,14.07
2018-12-05T00:16:38.703Z,13.00
2018-12-05T00:19:07.088Z,12.70
2018-12-05T00:21:35.466Z,14.07
2018-12-05T00:24:03.783Z,14.50
2018-12-05T00:26:32.432Z,13.80
2018-12-05T00:29:00.880Z,13.83
2018-12-05T00:31:29.212Z,15.80
2018-12-05T00:33:57.560Z,14.43
2018-12-05T00:36:25.916Z,14.97
2018-12-05T00:38:54.259Z,14.33
2018-12-05T00:41:22.625Z,13.10
2018-12-05T00:43:51.035Z,14.40
2018-12-05T00:46:19.821Z,13.03
2018-12-05T00:48:48.120Z,13.90
2018-12-05T00:51:16.524Z,15.03
2018-12-05T00:53:44.879Z,15.50
2018-12-05T00:56:13.232Z,14.43
2018-12-05T00:58:41.712Z,14.10
2018-12-05T01:01:10.070Z,15.10
2018-12-05T01:03:38.400Z,16.20
2018-12-05T01:06:06.841Z,15.50
2018-12-05T01:08:35.224Z,16.63
2018-12-05T01:11:03.575Z,15.70
2018-12-05T01:13:31.936Z,15.20
2018-12-05T01:16:00.295Z,15.77
2018-12-05T01:18:28.629Z,14.90
2018-12-05T01:20:57.007Z,14.80
2018-12-05T01:23:25.348Z,15.67
2018-12-05T01:25:53.712Z,15.50
2018-12-05T01:28:22.068Z,14.90
2018-12-05T01:30:50.418Z,14.47
2018-12-05T01:33:18.792Z,16.10
2018-12-05T01:35:47.152Z,14.23
2018-12-05T01:38:15.509Z,16.50
2018-12-05T01:40:44.025Z,16.80
2018-12-05T01:43:12.378Z,14.97
2018-12-05T01:45:40.708Z,14.80
2018-12-05T01:48:09.076Z,14.83
2018-12-05T01:50:37.412Z,17.10
2018-12-05T01:53:05.800Z,16.70
2018-12-05T01:55:34.152Z,16.77
2018-12-05T01:58:02.548Z,15.90
2018-12-05T02:00:30.893Z,16.10
2018-12-05T02:02:59.229Z,15.40
2018-12-05T02:05:27.569Z,16.13
2018-12-05T02:07:55.929Z,16.47
2018-12-05T02:10:24.270Z,17.13
2018-12-05T02:12:52.652Z,15.83
2018-12-05T02:15:21.013Z,16.03
2018-12-05T02:17:49.483Z,16.43
2018-12-05T02:20:17.811Z,16.40
2018-12-05T02:22:46.156Z,16.40
2018-12-05T02:25:14.473Z,17.80
2018-12-05T02:27:42.852Z,17.67
2018-12-05T02:30:11.196Z,17.20
2018-12-05T02:32:39.524Z,16.70
2018-12-05T02:35:08.038Z,17.50
2018-12-05T02:37:36.481Z,18.20
2018-12-05T02:40:05.924Z,19.40
2018-12-05T02:42:34.252Z,17.20
2018-12-05T02:45:02.810Z,19.40
2018-12-05T02:47:31.273Z,17.30
2018-12-05T02:49:59.639Z,17.77
2018-12-05T02:52:28.025Z,17.30
2018-12-05T02:54:56.731Z,17.73
2018-12-05T02:57:25.726Z,18.40
2018-12-05T02:59:54.484Z,21.33
2018-12-05T03:02:22.784Z,18.80
2018-12-05T03:04:51.167Z,21.03
2018-12-05T03:07:19.497Z,21.07
2018-12-05T03:09:47.870Z,20.30
2018-12-05T03:12:16.175Z,20.93
2018-12-05T03:14:44.572Z,19.63
2018-12-05T03:17:13.000Z,21.03
2018-12-05T03:19:41.417Z,21.07
2018-12-05T03:22:09.728Z,22.80
2018-12-05T03:24:38.062Z,21.30
2018-12-05T03:27:06.536Z,21.20
2018-12-05T03:29:34.876Z,19.80
2018-12-05T03:32:03.217Z,21.50
2018-12-05T03:34:31.790Z,19.87
2018-12-05T03:37:00.158Z,21.43
2018-12-05T03:39:28.500Z,20.53
2018-12-05T03:41:56.856Z,21.53
2018-12-05T03:44:25.285Z,20.60
2018-12-05T03:46:53.793Z,19.50
2018-12-05T03:49:22.155Z,20.70
2018-12-05T03:51:50.537Z,20.83
2018-12-05T03:54:18.858Z,19.07
2018-12-05T03:56:47.325Z,19.50
2018-12-05T03:59:15.932Z,19.80
2018-12-05T04:01:44.248Z,18.00
2018-12-05T04:04:12.616Z,19.90
2018-12-05T04:06:41.066Z,19.40
2018-12-05T04:09:09.416Z,20.10
2018-12-05T04:11:37.761Z,20.57
2018-12-05T04:14:06.127Z,19.83
2018-12-05T04:16:34.440Z,20.50
2018-12-05T04:19:02.800Z,20.37
2018-12-05T04:21:31.206Z,18.60
2018-12-05T04:23:59.554Z,22.13
2018-12-05T04:26:28.132Z,18.30
2018-12-05T04:28:56.460Z,19.83
2018-12-05T04:31:24.776Z,19.67
2018-12-05T04:33:53.160Z,20.33
2018-12-05T04:36:21.506Z,18.10
2018-12-05T04:38:49.932Z,17.87
2018-12-05T04:41:18.632Z,19.70
2018-12-05T04:43:46.975Z,19.23
2018-12-05T04:46:15.336Z,21.57
2018-12-05T04:48:43.676Z,21.90
2018-12-05T04:51:12.005Z,21.60
2018-12-05T04:53:40.485Z,20.90
2018-12-05T04:56:08.921Z,20.97
2018-12-05T04:58:37.224Z,21.33
2018-12-05T05:01:05.621Z,19.87
2018-12-05T05:03:34.018Z,20.53
2018-12-05T05:06:02.425Z,21.03
2018-12-05T05:08:30.804Z,20.27
2018-12-05T05:10:59.112Z,21.40
2018-12-05T05:13:27.429Z,21.87
2018-12-05T05:15:55.884Z,21.73
2018-12-05T05:18:24.245Z,21.17
2018-12-05T05:20:52.630Z,20.67
2018-12-05T05:23:21.278Z,19.30
2018-12-05T05:25:49.660Z,22.47
2018-12-05T05:28:17.999Z,21.13
2018-12-05T05:30:46.403Z,21.10
2018-12-05T05:33:14.733Z,21.23
2018-12-05T05:35:43.077Z,18.97
2018-12-05T05:38:11.395Z,18.63
2018-12-05T05:40:39.795Z,18.80
2018-12-05T05:43:08.118Z,17.63
2018-12-05T05:45:36.494Z,19.17
2018-12-05T05:48:04.835Z,18.23
2018-12-05T05:50:33.209Z,19.37
2018-12-05T05:53:01.839Z,18.37
2018-12-05T05:55:30.184Z,17.93
2018-12-05T05:57:58.640Z,18.73
2018-12-05T06:00:27.252Z,18.50
2018-12-05T06:02:55.584Z,19.90
2018-12-05T06:05:23.940Z,20.20
2018-12-05T06:07:52.276Z,18.03
2018-12-05T06:10:20.629Z,19.97
2018-12-05T06:12:48.972Z,19.37
2018-12-05T06:15:17.411Z,18.93
2018-12-05T06:17:45.725Z,18.90
2018-12-05T06:20:14.314Z,20.90
2018-12-05T06:22:42.653Z,18.73
2018-12-05T06:25:11.126Z,18.30
2018-12-05T06:27:39.492Z,19.33
2018-12-05T06:30:08.195Z,17.67
2018-12-05T06:32:36.539Z,16.80
2018-12-05T06:35:05.387Z,17.07
2018-12-05T06:37:33.754Z,17.37
2018-12-05T06:40:02.079Z,19.40
2018-12-05T06:42:30.460Z,18.10
2018-12-05T06:44:58.828Z,19.07
2018-12-05T06:47:27.996Z,18.30
2018-12-05T06:49:56.493Z,17.57
2018-12-05T06:52:24.897Z,19.03
2018-12-05T06:54:53.415Z,16.40
2018-12-05T06:57:21.819Z,17.10
2018-12-05T06:59:50.256Z,17.00
2018-12-05T07:02:18.671Z,17.00
2018-12-05T07:04:47.111Z,18.27
2018-12-05T07:07:15.704Z,15.37
2018-12-05T07:09:44.345Z,13.90
2018-12-05T07:12:12.909Z,14.60
2018-12-05T07:14:41.245Z,14.00
2018-12-05T07:17:09.612Z,13.97
2018-12-05T07:19:38.036Z,14.00
2018-12-05T07:22:06.375Z,12.67
2018-12-05T07:24:34.704Z,14.03
2018-12-05T07:27:03.090Z,13.30
2018-12-05T07:29:31.423Z,12.60
2018-12-05T07:31:59.780Z,12.03
2018-12-05T07:34:28.112Z,12.50
2018-12-05T07:36:56.665Z,10.57
2018-12-05T07:39:24.996Z,12.43
2018-12-05T07:41:53.324Z,11.80
2018-12-05T07:44:21.693Z,12.67
2018-12-05T07:46:50.029Z,12.77
2018-12-05T07:49:18.395Z,12.00
2018-12-05T07:51:46.932Z,12.47
2018-12-05T07:54:15.431Z,12.30
2018-12-05T07:56:43.797Z,12.30
2018-12-05T07:59:12.242Z,13.73
2018-12-05T08:01:40.595Z,12.57
2018-12-05T08:04:08.916Z,14.23
2018-12-05T08:06:37.268Z,13.20
2018-12-05T08:09:08.111Z,14.27
2018-12-05T08:11:36.723Z,12.97
2018-12-05T08:14:06.559Z,13.30
2018-12-05T08:16:35.188Z,13.93
2018-12-05T08:19:03.523Z,13.47
2018-12-05T08:21:31.868Z,13.40
2018-12-05T08:24:00.184Z,13.40
2018-12-05T08:26:28.576Z,14.30
2018-12-05T08:28:56.968Z,13.63
2018-12-05T08:31:25.474Z,14.40
2018-12-05T08:33:53.925Z,12.50
2018-12-05T08:36:22.267Z,13.53
2018-12-05T08:38:50.592Z,13.07
2018-12-05T08:41:18.969Z,13.70
2018-12-05T08:43:47.281Z,14.40
2018-12-05T08:46:15.624Z,13.10
2018-12-05T08:48:44.037Z,14.90
2018-12-05T08:51:12.436Z,15.10
2018-12-05T08:53:40.778Z,14.50
2018-12-05T08:56:09.113Z,13.67
2018-12-05T08:58:37.455Z,13.40
2018-12-05T09:01:05.784Z,14.80
2018-12-05T09:03:34.137Z,13.70
2018-12-05T09:06:02.492Z,14.33
2018-12-05T09:08:30.900Z,13.80
2018-12-05T09:10:59.416Z,13.20
2018-12-05T09:13:27.860Z,14.70
2018-12-05T09:15:56.209Z,14.70
2018-12-05T09:18:24.523Z,13.73
2018-12-05T09:20:52.890Z,12.23
2018-12-05T09:23:21.283Z,13.97
2018-12-05T09:25:49.619Z,14.97
2018-12-05T09:28:18.193Z,13.57
2018-12-05T09:30:46.914Z,12.47
2018-12-05T09:33:15.252Z,14.67
2018-12-05T09:35:43.619Z,13.17
2018-12-05T09:38:11.938Z,14.30
2018-12-05T09:40:40.328Z,12.47
2018-12-05T09:43:09.132Z,13.80
2018-12-05T09:45:37.624Z,14.23
2018-12-05T09:48:05.934Z,15.17
2018-12-05T09:50:34.372Z,14.53
2018-12-05T09:53:02.748Z,14.70
2018-12-05T09:55:31.109Z,14.63
2018-12-05T09:58:00.414Z,13.70
2018-12-05T10:00:28.852Z,14.37
2018-12-05T10:02:57.355Z,13.27
2018-12-05T10:05:25.667Z,14.20
2018-12-05T10:07:54.020Z,14.80
2018-12-05T10:10:22.373Z,14.70
2018-12-05T10:12:51.128Z,14.00
2018-12-05T10:15:19.459Z,15.17
2018-12-05T10:17:47.803Z,13.63
2018-12-05T10:20:16.160Z,15.03
2018-12-05T10:22:44.508Z,14.40
2018-12-05T10:25:12.957Z,15.73
2018-12-05T10:27:41.456Z,14.40
2018-12-05T10:30:09.938Z,13.77
2018-12-05T10:32:38.344Z,13.60
2018-12-05T10:35:06.816Z,13.90
2018-12-05T10:37:35.157Z,14.43
2018-12-05T10:40:03.500Z,14.10
2018-12-05T10:42:31.936Z,13.67
2018-12-05T10:45:00.372Z,15.30
2018-12-05T10:47:28.717Z,13.60
2018-12-05T10:49:57.061Z,13.80
2018-12-05T10:52:25.475Z,14.00
2018-12-05T10:54:53.897Z,14.70
2018-12-05T10:57:22.274Z,15.60
2018-12-05T10:59:50.631Z,14.20
2018-12-05T11:02:24.375Z,14.60
2018-12-05T11:04:58.180Z,16.20
2018-12-05T11:07:31.974Z,16.20
2018-12-05T11:10:05.777Z,14.50
2018-12-05T11:12:39.592Z,13.93
2018-12-05T11:15:13.412Z,15.00
2018-12-05T11:17:46.016Z,15.43
2018-12-05T11:20:19.763Z,14.47
2018-12-05T11:22:53.805Z,12.30
2018-12-05T11:25:23.184Z,12.27
2018-12-05T11:27:51.538Z,14.03
2018-12-05T11:30:20.072Z,15.13
2018-12-05T11:32:48.419Z,15.13
2018-12-05T11:35:16.881Z,13.40
2018-12-05T11:37:45.394Z,12.70
2018-12-05T11:40:13.787Z,14.47
2018-12-05T11:42:42.111Z,14.37
2018-12-05T11:45:10.609Z,14.10
2018-12-05T11:47:38.920Z,13.60
2018-12-05T11:50:07.307Z,13.33
2018-12-05T11:52:35.652Z,13.27
2018-12-05T11:55:04.265Z,13.13
2018-12-05T11:57:32.745Z,13.50
2018-12-05T12:00:01.100Z,13.77
2018-12-05T12:02:29.513Z,14.80
2018-12-05T12:04:58.046Z,13.30
2018-12-05T12:07:26.389Z,14.27
2018-12-05T12:09:55.231Z,12.33
2018-12-05T12:12:29.158Z,14.37
2018-12-05T12:14:57.509Z,12.93
2018-12-05T12:17:26.208Z,12.13
2018-12-05T12:19:54.556Z,11.70
2018-12-05T12:22:22.905Z,11.20
2018-12-05T12:24:51.287Z,13.23
2018-12-05T12:27:19.617Z,12.33
2018-12-05T12:29:47.945Z,11.00
2018-12-05T12:32:16.530Z,12.73
2018-12-05T12:34:44.841Z,12.20
2018-12-05T12:37:13.172Z,12.80
2018-12-05T12:39:41.587Z,12.30
2018-12-05T12:42:09.984Z,12.90
2018-12-05T12:44:38.304Z,9.70
2018-12-05T12:47:06.841Z,11.53
2018-12-05T12:49:35.319Z,12.70
2018-12-05T12:52:03.665Z,11.17
2018-12-05T12:54:32.075Z,10.30
2018-12-05T12:57:00.412Z,12.67
2018-12-05T12:59:28.817Z,12.27
2018-12-05T13:01:57.168Z,13.73
2018-12-05T13:04:25.500Z,13.20
2018-12-05T13:06:54.020Z,11.83
2018-12-05T13:09:22.384Z,11.90
2018-12-05T13:11:50.693Z,11.63
2018-12-05T13:14:19.077Z,11.20
2018-12-05T13:16:47.420Z,11.30
2018-12-05T13:19:15.805Z,11.87
2018-12-05T13:21:44.156Z,12.97
2018-12-05T13:24:12.806Z,13.40
2018-12-05T13:26:41.161Z,12.47
2018-12-05T13:29:09.625Z,12.03
2018-12-05T13:31:37.935Z,11.70
2018-12-05T13:34:06.315Z,10.37
2018-12-05T13:36:34.760Z,11.70
2018-12-05T13:39:05.236Z,11.07
2018-12-05T13:41:33.562Z,10.43
2018-12-05T13:44:02.188Z,13.53
2018-12-05T13:46:30.678Z,12.00
2018-12-05T13:48:59.054Z,11.90
2018-12-05T13:51:27.386Z,9.80
2018-12-05T13:53:55.764Z,11.80
2018-12-05T13:56:24.119Z,10.63
2018-12-05T13:58:52.459Z,9.67
2018-12-05T14:01:20.820Z,10.43
2018-12-05T14:03:49.222Z,11.97
2018-12-05T14:06:17.548Z,12.30
2018-12-05T14:08:45.937Z,15.10
2018-12-05T14:11:14.288Z,15.37
2018-12-05T14:13:42.694Z,15.70
2018-12-05T14:16:11.049Z,16.10
2018-12-05T14:18:39.384Z,16.90
2018-12-05T14:21:07.724Z,18.20
2018-12-05T14:23:36.237Z,18.17
2018-12-05T14:26:04.576Z,15.53
2018-12-05T14:28:32.996Z,18.50
2018-12-05T14:31:01.336Z,16.07
2018-12-05T14:33:29.667Z,19.83
2018-12-05T14:35:58.032Z,18.47
2018-12-05T14:38:26.357Z,14.17
2018-12-05T14:40:54.861Z,14.67
2018-12-05T14:43:23.208Z,14.50
2018-12-05T14:45:51.636Z,13.97
2018-12-05T14:48:20.342Z,11.90
2018-12-05T14:50:48.778Z,11.90
2018-12-05T14:53:17.225Z,10.53
2018-12-05T14:55:45.603Z,11.73
2018-12-05T14:58:13.988Z,9.37
2018-12-05T15:00:42.666Z,10.37
2018-12-05T15:03:11.150Z,10.90
2018-12-05T15:05:39.469Z,11.77
2018-12-05T15:08:07.837Z,10.50
2018-12-05T15:10:36.188Z,10.60
2018-12-05T15:13:04.521Z,12.37
2018-12-05T15:15:32.949Z,11.20
2018-12-05T15:18:01.320Z,11.33
2018-12-05T15:20:29.835Z,11.57
2018-12-05T15:22:58.312Z,12.20
2018-12-05T15:25:26.808Z,9.70
2018-12-05T15:27:55.165Z,11.03
2018-12-05T15:30:23.507Z,11.93
2018-12-05T15:32:51.957Z,10.17
2018-12-05T15:35:20.368Z,12.00
2018-12-05T15:37:48.889Z,12.00
2018-12-05T15:40:17.311Z,11.60
2018-12-05T15:42:45.698Z,12.00
2018-12-05T15:45:21.391Z,6.80
2018-12-05T15:47:44.632Z,12.47
2018-12-05T15:50:12.972Z,11.07
2018-12-05T15:52:41.287Z,11.07
2018-12-05T15:55:09.880Z,12.70
2018-12-05T15:57:38.216Z,11.83
2018-12-05T16:00:07.983Z,11.27
2018-12-05T16:02:36.560Z,11.10
2018-12-05T16:05:05.849Z,11.57
2018-12-05T16:07:34.254Z,8.30
2018-12-05T16:10:02.668Z,10.90
2018-12-05T16:12:31.300Z,6.77
2018-12-05T16:14:59.631Z,11.00
2018-12-05T16:17:28.084Z,11.67
2018-12-05T16:19:56.478Z,12.47
2018-12-05T16:22:24.846Z,10.37
2018-12-05T16:24:53.341Z,10.43
2018-12-05T16:27:21.791Z,9.77
2018-12-05T16:29:50.142Z,10.57
2018-12-05T16:32:18.515Z,10.33
2018-12-05T16:34:47.320Z,10.70
2018-12-05T16:37:15.702Z,11.73
2018-12-05T16:39:44.048Z,9.63
2018-12-05T16:42:12.421Z,10.80
2018-12-05T16:44:40.829Z,11.30
2018-12-05T16:47:09.317Z,11.13
2018-12-05T16:49:39.606Z,11.30
2018-12-05T16:52:08.201Z,12.40
2018-12-05T16:54:36.908Z,11.60
2018-12-05T16:57:05.265Z,11.87
2018-12-05T16:59:33.731Z,11.80
2018-12-05T17:02:02.381Z,11.40
2018-12-05T17:04:30.734Z,11.17
2018-12-05T17:06:59.168Z,13.60
2018-12-05T17:09:27.601Z,12.20
2018-12-05T17:11:56.036Z,9.77
2018-12-05T17:14:24.415Z,12.67
2018-12-05T17:16:52.796Z,11.43
2018-12-05T17:19:21.229Z,11.93
2018-12-05T17:21:49.644Z,10.70
2018-12-05T17:24:18.013Z,10.30
2018-12-05T17:26:46.402Z,10.33
2018-12-05T17:29:14.781Z,12.23
2018-12-05T17:31:43.157Z,11.67
2018-12-05T17:34:11.617Z,12.80
2018-12-05T17:36:40.074Z,10.80
2018-12-05T17:39:09.028Z,12.03
2018-12-05T17:41:37.576Z,11.07
2018-12-05T17:44:05.980Z,13.43
2018-12-05T17:46:34.314Z,12.03
2018-12-05T17:49:02.743Z,12.03
2018-12-05T17:51:31.150Z,13.07
2018-12-05T17:53:59.478Z,11.23
2018-12-05T17:56:27.876Z,13.07
2018-12-05T17:58:56.745Z,14.33
2018-12-05T18:01:25.176Z,12.67
2018-12-05T18:03:53.748Z,11.40
2018-12-05T18:06:22.144Z,11.33
2018-12-05T18:08:50.490Z,12.90
2018-12-05T18:11:18.894Z,12.40
2018-12-05T18:13:47.327Z,11.60
2018-12-05T18:16:15.776Z,11.90
2018-12-05T18:18:44.120Z,11.50
2018-12-05T18:21:12.468Z,12.17
2018-12-05T18:23:40.878Z,12.17
2018-12-05T18:26:09.213Z,13.33
2018-12-05T18:28:37.678Z,12.50
2018-12-05T18:31:06.150Z,13.00
2018-12-05T18:33:34.484Z,13.10
2018-12-05T18:36:02.971Z,12.93
2018-12-05T18:38:31.324Z,11.93
2018-12-05T18:40:59.907Z,12.80
2018-12-05T18:43:28.250Z,11.83
2018-12-05T18:45:56.647Z,12.97
2018-12-05T18:48:25.020Z,12.67
2018-12-05T18:50:53.405Z,12.13
2018-12-05T18:53:21.788Z,14.20
2018-12-05T18:55:50.172Z,15.93
2018-12-05T18:58:18.501Z,14.80
2018-12-05T19:00:46.951Z,14.67
2018-12-05T19:03:15.496Z,13.50
2018-12-05T19:05:43.955Z,14.23
2018-12-05T19:08:12.317Z,13.37
2018-12-05T19:10:40.834Z,13.77
2018-12-05T19:13:09.216Z,13.83
2018-12-05T19:15:37.598Z,14.20
2018-12-05T19:18:06.001Z,13.47
2018-12-05T19:20:34.650Z,13.17
2018-12-05T19:23:03.000Z,14.33
2018-12-05T19:25:31.411Z,11.73
2018-12-05T19:27:59.793Z,11.37
2018-12-05T19:30:28.184Z,13.43
2018-12-05T19:32:56.569Z,12.47
2018-12-05T19:35:24.970Z,12.60
2018-12-05T19:37:53.368Z,12.07
2018-12-05T19:40:21.721Z,12.97
2018-12-05T19:42:50.350Z,12.37
2018-12-05T19:45:18.725Z,13.50
2018-12-05T19:47:47.097Z,13.80
2018-12-05T19:50:15.582Z,14.50
2018-12-05T19:52:43.965Z,13.73
2018-12-05T19:55:13.352Z,14.97
2018-12-05T19:57:41.799Z,12.67
2018-12-05T20:00:11.232Z,12.17
2018-12-05T20:02:39.708Z,13.10
2018-12-05T20:05:08.232Z,12.93
2018-12-05T20:07:36.616Z,12.07
2018-12-05T20:10:05.075Z,12.73
2018-12-05T20:12:33.559Z,11.93
2018-12-05T20:15:02.002Z,13.07
2018-12-05T20:17:30.433Z,11.17
2018-12-05T20:19:59.008Z,11.90
2018-12-05T20:22:27.514Z,11.20
2018-12-05T20:24:55.911Z,11.70
2018-12-05T20:27:24.530Z,11.63
2018-12-05T20:29:52.887Z,11.20
2018-12-05T20:32:21.251Z,11.40
2018-12-05T20:34:49.695Z,13.27
2018-12-05T20:37:18.117Z,11.87
2018-12-05T20:39:46.517Z,11.23
2018-12-05T20:42:14.905Z,11.50
2018-12-05T20:44:43.286Z,12.40
2018-12-05T20:47:11.838Z,11.40
2018-12-05T20:49:40.229Z,12.20
2018-12-05T20:52:08.836Z,13.50
2018-12-05T20:54:37.415Z,12.60
2018-12-05T20:57:05.881Z,12.83
2018-12-05T20:59:34.522Z,12.77
2018-12-05T21:02:02.919Z,13.47
2018-12-05T21:04:31.310Z,12.73
2018-12-05T21:06:59.893Z,12.27
2018-12-05T21:09:28.298Z,11.47
2018-12-05T21:11:56.681Z,12.63
2018-12-05T21:14:25.111Z,12.40
2018-12-05T21:16:53.486Z,12.27
2018-12-05T21:19:22.352Z,12.50
2018-12-05T21:21:51.089Z,16.17
2018-12-05T21:24:19.429Z,16.70
2018-12-05T21:26:47.942Z,13.40
2018-12-05T21:29:16.351Z,17.17
2018-12-05T21:31:44.768Z,13.03
2018-12-05T21:34:13.222Z,12.07
2018-12-05T21:36:41.671Z,13.33
2018-12-05T21:39:11.467Z,13.03
2018-12-05T21:41:39.998Z,11.53
2018-12-05T21:44:08.343Z,13.27
2018-12-05T21:46:36.796Z,13.83
2018-12-05T21:49:05.236Z,12.80
2018-12-05T21:51:33.628Z,13.87
2018-12-05T21:54:02.039Z,13.70
2018-12-05T21:56:30.476Z,12.60
2018-12-05T21:58:59.254Z,12.83
2018-12-05T22:01:27.640Z,12.07
2018-12-05T22:03:55.980Z,13.60
2018-12-05T22:06:24.384Z,13.70
2018-12-05T22:08:52.773Z,13.40
2018-12-05T22:11:21.126Z,13.50
2018-12-05T22:13:49.813Z,12.57
2018-12-05T22:16:18.230Z,12.13
2018-12-05T22:18:46.567Z,12.03
2018-12-05T22:21:15.041Z,11.63
2018-12-05T22:23:43.427Z,12.23
2018-12-05T22:26:11.849Z,12.57
2018-12-05T22:28:40.204Z,11.27
2018-12-05T22:31:08.642Z,10.33
2018-12-05T22:33:37.050Z,11.23
2018-12-05T22:36:05.432Z,11.80
2018-12-05T22:38:33.782Z,12.17
2018-12-05T22:41:02.644Z,12.20
2018-12-05T22:43:30.980Z,12.00
2018-12-05T22:45:59.341Z,13.10
2018-12-05T22:48:27.801Z,11.43
2018-12-05T22:50:56.136Z,13.10
2018-12-05T22:53:24.485Z,11.80
2018-12-05T22:55:53.063Z,11.93
2018-12-05T22:58:21.390Z,12.60
2018-12-05T23:00:52.421Z,11.80
2018-12-05T23:03:20.884Z,10.90
2018-12-05T23:05:49.223Z,13.37
2018-12-05T23:08:17.610Z,12.47
2018-12-05T23:10:45.968Z,13.30
2018-12-05T23:13:14.442Z,11.80
2018-12-05T23:15:42.987Z,12.63
2018-12-05T23:18:12.321Z,13.53
2018-12-05T23:20:40.670Z,11.70
2018-12-05T23:23:09.041Z,11.03
2018-12-05T23:25:37.399Z,12.60
2018-12-05T23:28:05.740Z,13.10
2018-12-05T23:30:34.387Z,12.23
2018-12-05T23:33:02.747Z,12.40
2018-12-05T23:35:31.168Z,13.73
2018-12-05T23:37:59.578Z,12.50
2018-12-05T23:43:31.429Z,13.37
2018-12-05T23:45:59.765Z,13.30
2018-12-05T23:48:28.204Z,13.97
2018-12-05T23:50:56.581Z,12.60
2018-12-05T23:53:24.922Z,14.60
2018-12-05T23:55:53.511Z,14.27
2018-12-05T23:58:22.039Z,14.57
